Time;durP1;ratioP1;P1;durP2;ratioP2;P2;SDS_P1;SDS_P2;PMS_P1;PMS_P2;Temp;Humidity;BMP_temperature;BMP_pressure;BME280_temperature;BME280_humidity;BME280_pressure;Samples;Min_cycle;Max_cycle;Signal;HPM_P1;HPM_P2
2023/02/13 00:02:09;;;;;;;32.00;18.30;;;;;;;4.36;86.80;102133.41;107669;1249;80935;-61
2023/02/13 00:04:46;;;;;;;24.70;17.30;;;;;;;4.34;86.72;102134.80;107755;1249;81046;-61
2023/02/13 00:07:23;;;;;;;29.40;16.90;;;;;;;4.33;86.69;102139.83;107655;1250;97086;-62
2023/02/13 00:10:04;;;;;;;28.80;16.10;;;;;;;4.30;86.86;102137.20;107709;1250;87862;-55
2023/02/13 00:12:45;;;;;;;28.90;17.00;;;;;;;4.30;87.08;102135.60;107654;1249;95719;-57
2023/02/13 00:15:22;;;;;;;27.50;15.50;;;;;;;4.33;87.10;102127.55;107668;1250;79851;-59
2023/02/13 00:18:03;;;;;;;28.40;15.90;;;;;;;4.36;86.88;102127.34;107716;1250;80805;-58
2023/02/13 00:20:49;;;;;;;26.00;14.60;;;;;;;4.36;86.75;102128.23;107685;1251;98326;-62
2023/02/13 00:23:32;;;;;;;25.00;14.00;;;;;;;4.36;87.04;102124.11;107707;1250;87132;-62
2023/02/13 00:26:11;;;;;;;25.00;14.70;;;;;;;4.38;86.96;102117.59;107683;1249;93451;-61
2023/02/13 00:28:52;;;;;;;26.10;15.70;;;;;;;4.37;86.89;102121.39;107713;1250;82599;-58
2023/02/13 00:31:29;;;;;;;24.50;14.50;;;;;;;4.38;86.75;102113.67;107707;1249;81918;-57
2023/02/13 00:34:06;;;;;;;24.60;14.50;;;;;;;4.37;86.83;102116.94;107670;1250;96772;-59
2023/02/13 00:36:45;;;;;;;27.70;15.00;;;;;;;4.39;86.75;102118.90;107708;1250;86386;-55
2023/02/13 00:39:26;;;;;;;27.80;15.50;;;;;;;4.41;87.01;102112.57;107643;1250;94926;-58
2023/02/13 00:42:12;;;;;;;29.80;16.90;;;;;;;4.42;86.77;102109.77;107687;1251;80110;-58
2023/02/13 00:44:50;;;;;;;27.40;15.40;;;;;;;4.41;87.01;102114.55;107716;1250;82230;-61
2023/02/13 00:47:27;;;;;;;26.00;16.30;;;;;;;4.38;87.10;102117.38;107745;1249;97097;-62
2023/02/13 00:50:05;;;;;;;28.00;15.90;;;;;;;4.41;87.12;102117.39;107715;1250;87941;-60
2023/02/13 00:52:46;;;;;;;26.00;14.80;;;;;;;4.40;87.01;102117.39;107701;1249;94466;-60
2023/02/13 00:55:21;;;;;;;26.10;14.50;;;;;;;4.39;87.11;102120.36;107674;1250;81456;-62
2023/02/13 00:58:06;;;;;;;25.10;13.70;;;;;;;4.37;87.04;102120.48;107660;1250;83241;-62
2023/02/13 01:00:51;;;;;;;27.20;15.50;;;;;;;4.36;87.13;102120.19;107687;1250;98638;-58
2023/02/13 01:03:31;;;;;;;27.00;14.60;;;;;;;4.39;87.14;102124.10;107683;1250;88341;-57
2023/02/13 01:06:07;;;;;;;25.40;16.40;;;;;;;4.40;87.22;102128.84;107661;1250;93492;-57
2023/02/13 01:08:43;;;;;;;27.20;15.70;;;;;;;4.40;87.20;102121.52;107715;1250;81865;-57
2023/02/13 01:11:19;;;;;;;21.90;13.30;;;;;;;4.42;87.32;102123.67;107678;1254;82453;-59
2023/02/13 01:13:59;;;;;;;21.40;13.00;;;;;;;4.44;87.16;102119.65;107684;1250;98739;-58
2023/02/13 01:16:34;;;;;;;22.70;13.00;;;;;;;4.46;86.97;102115.90;107711;1251;88470;-55
2023/02/13 01:19:11;;;;;;;21.10;12.90;;;;;;;4.45;87.14;102115.64;107713;1250;94812;-60
2023/02/13 01:21:51;;;;;;;21.60;12.90;;;;;;;4.45;87.27;102109.77;107719;1250;81146;-60
2023/02/13 01:24:32;;;;;;;19.50;12.50;;;;;;;4.45;87.32;102112.05;107720;1250;82800;-61
2023/02/13 01:27:06;;;;;;;24.10;13.00;;;;;;;4.45;87.51;102111.70;107743;1251;98305;-61
2023/02/13 01:29:44;;;;;;;22.30;12.90;;;;;;;4.44;87.45;102107.29;107698;1250;87076;-58
2023/02/13 01:32:24;;;;;;;21.00;12.40;;;;;;;4.42;87.34;102103.71;107692;1250;93755;-57
2023/02/13 01:35:06;;;;;;;21.00;12.60;;;;;;;4.45;87.22;102100.30;107725;1250;81840;-60
2023/02/13 01:37:50;;;;;;;25.00;12.50;;;;;;;4.46;87.43;102105.79;107686;1250;83258;-60
2023/02/13 01:40:28;;;;;;;22.90;12.50;;;;;;;4.45;87.42;102107.23;107698;1249;98224;-55
2023/02/13 01:43:16;;;;;;;22.50;12.70;;;;;;;4.47;87.37;102106.77;107686;1250;88816;-57
2023/02/13 01:46:02;;;;;;;18.70;11.20;;;;;;;4.47;87.30;102107.64;107710;1250;95031;-56
2023/02/13 01:48:57;;;;;;;18.10;11.00;;;;;;;4.50;87.35;102100.66;107634;1250;82437;-58
2023/02/13 01:51:39;;;;;;;19.80;11.60;;;;;;;4.54;87.38;102102.46;107699;1250;81041;-58
2023/02/13 01:54:20;;;;;;;19.00;10.70;;;;;;;4.57;87.24;102102.45;107699;1249;97848;-56
2023/02/13 01:57:06;;;;;;;24.50;12.20;;;;;;;4.60;87.29;102102.79;107665;1250;89234;-57
2023/02/13 01:59:50;;;;;;;20.20;11.60;;;;;;;4.60;87.31;102102.61;107705;1250;94136;-58
2023/02/13 02:02:37;;;;;;;24.20;12.00;;;;;;;4.62;87.42;102104.77;107722;1250;78976;-57
2023/02/13 02:05:12;;;;;;;20.70;11.00;;;;;;;4.62;87.42;102107.97;107749;1250;83198;-58
2023/02/13 02:07:56;;;;;;;21.20;12.10;;;;;;;4.60;87.38;102105.45;107713;1250;98633;-57
2023/02/13 02:10:44;;;;;;;21.10;11.40;;;;;;;4.59;87.09;102107.10;107692;1250;87547;-62
2023/02/13 02:13:33;;;;;;;20.50;11.30;;;;;;;4.59;87.46;102110.67;107652;1251;95053;-57
2023/02/13 02:16:10;;;;;;;18.30;11.70;;;;;;;4.58;87.35;102109.53;107670;1249;80243;-62
2023/02/13 02:18:47;;;;;;;19.40;10.20;;;;;;;4.57;87.44;102106.00;107716;1250;82983;-57
2023/02/13 02:22:16;;;;;;;18.60;10.90;;;;;;;4.58;87.43;102113.64;107665;1250;96667;-59
2023/02/13 02:25:40;;;;;;;17.90;9.90;;;;;;;4.64;87.48;102108.20;107726;1249;87286;-58
2023/02/13 02:29:01;;;;;;;20.30;10.60;;;;;;;4.65;87.35;102109.35;107662;1250;95593;-61
2023/02/13 02:32:26;;;;;;;20.00;10.70;;;;;;;4.68;87.58;102104.89;107679;1250;82520;-61
2023/02/13 02:35:20;;;;;;;19.50;10.00;;;;;;;4.72;87.61;102101.17;107674;1253;81894;-62
2023/02/13 02:38:15;;;;;;;21.10;10.40;;;;;;;4.75;87.60;102104.15;107705;1250;98756;-61
2023/02/13 02:41:07;;;;;;;18.60;10.40;;;;;;;4.72;87.57;102099.92;107653;1249;88920;-61
2023/02/13 02:44:03;;;;;;;20.60;11.10;;;;;;;4.75;87.44;102099.71;107684;1250;94623;-58
2023/02/13 02:50:06;;;;;;;19.20;10.90;;;;;;;4.72;87.55;102110.83;107745;1250;82615;-64
2023/02/13 02:52:56;;;;;;;19.70;10.70;;;;;;;4.71;87.39;102109.13;107674;1250;98835;-61
2023/02/13 02:55:42;;;;;;;20.00;10.40;;;;;;;4.73;87.35;102111.45;107714;1250;86582;-55
2023/02/13 03:07:39;;;;;;;18.30;10.20;;;;;;;4.77;87.42;102122.77;107642;1250;97774;-57
2023/02/13 03:13:40;;;;;;;17.00;10.20;;;;;;;4.78;87.52;102123.55;107654;1249;95555;-58
2023/02/13 03:22:34;;;;;;;17.60;11.10;;;;;;;4.86;87.72;102123.39;107662;1250;98893;-57
2023/02/13 03:25:29;;;;;;;17.10;9.80;;;;;;;4.87;87.57;102119.23;107670;1250;88904;-57
2023/02/13 03:31:23;;;;;;;18.20;10.40;;;;;;;4.89;87.48;102111.73;107672;1250;80293;-62
2023/02/13 03:34:09;;;;;;;21.70;11.20;;;;;;;4.90;87.66;102111.33;107713;1250;82842;-60
2023/02/13 03:40:03;;;;;;;19.00;10.40;;;;;;;4.87;87.37;102110.14;107667;1250;87821;-61
2023/02/13 03:42:51;;;;;;;22.10;11.10;;;;;;;4.84;87.38;102108.92;107651;1250;93994;-62
2023/02/13 03:45:57;;;;;;;17.90;11.50;;;;;;;4.84;87.43;102109.07;107617;1250;79539;-56
2023/02/13 03:51:38;;;;;;;16.30;11.20;;;;;;;4.88;87.60;102111.66;107641;1254;98487;-58
2023/02/13 03:54:32;;;;;;;;;;;;;;;;;;;;;
2023/02/13 04:00:17;;;;;;;17.20;10.60;;;;;;;4.88;87.62;102111.47;107646;1249;82558;-61
2023/02/13 04:03:08;;;;;;;18.70;10.70;;;;;;;4.89;87.48;102105.14;107691;1250;83003;-61
2023/02/13 04:05:47;;;;;;;21.50;10.60;;;;;;;4.88;87.61;102099.13;107684;1250;99935;-61
2023/02/13 04:08:27;;;;;;;20.50;11.30;;;;;;;4.91;87.56;102103.89;107639;1250;86811;-60
2023/02/13 04:11:12;;;;;;;19.30;10.90;;;;;;;4.87;87.58;102104.75;107648;1251;94650;-55
2023/02/13 04:13:57;;;;;;;20.10;11.10;;;;;;;4.87;87.65;102104.38;107653;1250;80864;-61
2023/02/13 04:16:37;;;;;;;;;;;;;;;4.89;87.88;102107.09;107675;1250;82849;-61
2023/02/13 04:19:22;;;;;;;19.80;11.40;;;;;;;4.87;87.82;102103.70;107627;1249;97445;-57
2023/02/13 04:22:02;;;;;;;18.40;10.60;;;;;;;4.91;87.68;102107.70;107666;1250;88095;-57
2023/02/13 04:24:41;;;;;;;17.20;10.80;;;;;;;4.94;87.90;102103.02;107643;1249;94436;-59
2023/02/13 04:27:23;;;;;;;17.30;10.70;;;;;;;4.95;87.75;102105.91;107655;1250;80853;-58
2023/02/13 04:30:05;;;;;;;18.70;10.90;;;;;;;4.96;87.70;102105.85;107692;1250;80787;-61
2023/02/13 04:32:46;;;;;;;19.00;11.20;;;;;;;4.93;87.78;102106.29;107642;1250;99239;-61
2023/02/13 04:35:32;;;;;;;21.60;11.80;;;;;;;4.91;87.79;102110.16;107664;1250;85802;-62
2023/02/13 04:38:12;;;;;;;19.90;11.50;;;;;;;4.90;87.59;102112.38;107641;1250;95380;-60
2023/02/13 04:40:50;;;;;;;18.40;11.20;;;;;;;4.88;87.64;102113.98;107683;1250;79755;-61
2023/02/13 04:43:27;;;;;;;20.30;11.30;;;;;;;4.86;87.62;102112.69;107714;1249;81798;-59
2023/02/13 04:46:12;;;;;;;19.40;12.60;;;;;;;4.86;87.57;102114.83;107657;1250;97882;-55
2023/02/13 04:48:59;;;;;;;21.30;11.50;;;;;;;4.88;87.75;102112.52;107648;1250;88276;-58
2023/02/13 04:51:44;;;;;;;18.10;11.00;;;;;;;4.89;87.84;102113.48;107660;1250;94643;-58
2023/02/13 04:54:21;;;;;;;22.50;12.60;;;;;;;4.90;87.95;102115.94;107668;1250;82971;-61
2023/02/13 04:56:59;;;;;;;18.70;11.50;;;;;;;4.87;87.96;102110.63;107657;1253;81884;-62
2023/02/13 04:59:41;;;;;;;17.80;11.80;;;;;;;4.84;88.02;102110.54;107692;1250;99264;-58
2023/02/13 05:02:16;;;;;;;17.10;11.50;;;;;;;4.89;87.87;102108.19;107638;1250;88288;-58
2023/02/13 05:04:56;;;;;;;19.10;12.10;;;;;;;4.93;87.78;102103.39;107657;1250;96006;-58
2023/02/13 05:07:40;;;;;;;19.20;11.90;;;;;;;4.96;87.72;102101.71;107636;1249;82230;-58
2023/02/13 05:10:20;;;;;;;20.90;13.10;;;;;;;4.96;87.68;102108.18;107715;1251;82393;-61
2023/02/13 05:13:04;;;;;;;18.00;11.20;;;;;;;4.98;87.74;102105.56;107673;1250;98493;-61
2023/02/13 05:15:49;;;;;;;20.70;12.30;;;;;;;4.95;87.94;102101.66;107685;1250;88672;-63
2023/02/13 05:18:23;;;;;;;21.20;12.90;;;;;;;4.97;87.93;102101.67;106227;1249;1910248;-62
2023/02/13 05:24:05;;;;;;;23.60;13.40;;;;;;;4.91;87.92;102103.89;107625;1252;82993;-59
2023/02/13 05:26:50;;;;;;;22.40;13.00;;;;;;;4.88;87.93;102108.09;107651;1249;97579;-59
2023/02/13 05:29:37;;;;;;;19.50;12.10;;;;;;;4.84;87.99;102113.19;107708;1250;88535;-63
2023/02/13 05:32:19;;;;;;;20.10;12.50;;;;;;;4.81;88.06;102108.61;107639;1253;95418;-62
2023/02/13 05:35:04;;;;;;;18.10;12.00;;;;;;;4.81;88.03;102105.55;107631;1249;81171;-61
2023/02/13 05:37:46;;;;;;;18.20;12.00;;;;;;;4.85;88.01;102108.28;107689;1250;82322;-61
2023/02/13 05:40:30;;;;;;;19.40;11.90;;;;;;;4.82;88.16;102112.26;107709;1250;98774;-57
2023/02/13 05:43:18;;;;;;;17.80;10.60;;;;;;;4.87;88.12;102111.92;107647;1250;88755;-59
2023/02/13 05:46:03;;;;;;;19.50;11.20;;;;;;;4.91;87.99;102111.42;107657;1250;93622;-62
2023/02/13 05:48:45;;;;;;;17.90;11.50;;;;;;;4.93;88.08;102116.63;107657;1250;81983;-58
2023/02/13 05:51:27;;;;;;;17.50;10.50;;;;;;;4.93;88.10;102117.70;107633;1249;82039;-60
2023/02/13 05:54:14;;;;;;;18.00;11.30;;;;;;;4.96;87.95;102123.74;107679;1250;97318;-61
2023/02/13 05:56:56;;;;;;;21.00;12.10;;;;;;;4.97;88.02;102125.80;107658;1250;88256;-60
2023/02/13 05:59:40;;;;;;;21.80;11.90;;;;;;;4.94;87.96;102128.52;107628;1250;94634;-58
2023/02/13 06:02:25;;;;;;;19.40;11.20;;;;;;;4.96;88.08;102129.63;107620;1250;80584;-58
2023/02/13 06:05:03;;;;;;;23.50;12.50;;;;;;;4.96;87.86;102129.76;107675;1249;81738;-58
2023/02/13 06:07:46;;;;;;;20.60;12.70;;;;;;;4.98;87.89;102130.16;107624;1250;97246;-58
2023/02/13 06:10:31;;;;;;;19.70;12.10;;;;;;;4.97;87.85;102130.97;107624;1250;89371;-58
2023/02/13 06:13:13;;;;;;;19.80;12.40;;;;;;;4.97;87.83;102134.73;107706;1250;95108;-59
2023/02/13 06:15:50;;;;;;;19.70;11.60;;;;;;;4.96;87.79;102129.63;107630;1249;80043;-61
2023/02/13 06:18:29;;;;;;;19.70;13.20;;;;;;;4.95;87.80;102130.56;107680;1250;81368;-61
2023/02/13 06:21:08;;;;;;;25.10;13.30;;;;;;;4.94;87.85;102122.08;107660;1250;96852;-62
2023/02/13 06:23:54;;;;;;;22.30;12.70;;;;;;;4.95;87.74;102117.05;107701;1249;90278;-60
2023/02/13 06:26:38;;;;;;;19.80;11.70;;;;;;;4.96;87.78;102119.82;107646;1250;95208;-62
2023/02/13 06:29:18;;;;;;;21.70;13.90;;;;;;;5.00;87.72;102124.52;107668;1250;82415;-59
2023/02/13 06:32:03;;;;;;;24.50;13.10;;;;;;;5.02;87.96;102123.62;107640;1254;83028;-58
2023/02/13 06:34:41;;;;;;;18.00;11.80;;;;;;;5.06;87.73;102128.48;107661;1250;98018;-58
2023/02/13 06:37:22;;;;;;;19.40;11.40;;;;;;;5.07;87.78;102127.73;107626;1253;89041;-58
2023/02/13 06:40:02;;;;;;;17.40;11.90;;;;;;;5.08;87.73;102131.89;107684;1250;95759;-55
2023/02/13 06:42:39;;;;;;;18.20;11.50;;;;;;;5.08;87.76;102134.79;107629;1250;77836;-57
2023/02/13 06:45:14;;;;;;;20.40;12.60;;;;;;;5.09;87.63;102134.89;107672;1250;82062;-62
2023/02/13 06:47:55;;;;;;;18.40;11.80;;;;;;;5.09;87.78;102137.54;107667;1250;98570;-61
2023/02/13 06:50:39;;;;;;;20.00;11.60;;;;;;;5.06;87.66;102137.61;107612;1250;88690;-62
2023/02/13 06:53:26;;;;;;;18.40;11.50;;;;;;;5.04;87.73;102139.38;107634;1250;94608;-59
2023/02/13 06:56:06;;;;;;;21.10;12.00;;;;;;;5.05;87.68;102136.13;107640;1250;81561;-53
2023/02/13 06:58:43;;;;;;;16.60;11.10;;;;;;;5.03;87.54;102139.27;107637;1250;80118;-61
2023/02/13 07:01:20;;;;;;;20.40;10.90;;;;;;;5.05;87.56;102141.84;107640;1250;99037;-61
2023/02/13 07:04:01;;;;;;;17.40;9.70;;;;;;;5.06;87.66;102142.25;107660;1253;89144;-57
2023/02/13 07:06:42;;;;;;;15.10;9.30;;;;;;;5.07;87.77;102135.56;107628;1250;95693;-50
2023/02/13 07:09:21;;;;;;;14.00;9.30;;;;;;;5.12;87.81;102134.66;107684;1250;81412;-61
2023/02/13 07:12:04;;;;;;;63.90;30.20;;;;;;;5.16;87.59;102128.64;107656;1253;82996;-61
2023/02/13 07:14:48;;;;;;;47.40;30.50;;;;;;;5.19;87.70;102130.17;107656;1250;98965;-61
2023/02/13 07:17:30;;;;;;;35.70;23.40;;;;;;;5.29;87.87;102134.09;107657;1250;88917;-61
2023/02/13 07:20:10;;;;;;;44.00;31.40;;;;;;;5.43;87.76;102139.52;107663;1250;94599;-56
2023/02/13 07:22:56;;;;;;;25.70;17.30;;;;;;;5.60;87.88;102135.25;107671;1251;79764;-58
2023/02/13 07:25:40;;;;;;;20.50;14.30;;;;;;;5.83;87.94;102138.06;107641;1250;83072;-57
2023/02/13 07:28:18;;;;;;;18.40;11.80;;;;;;;6.41;88.29;102134.66;107680;1250;97898;-56
2023/02/13 07:31:05;;;;;;;17.90;10.70;;;;;;;7.36;88.39;102134.77;107634;1250;86977;-59
2023/02/13 07:33:52;;;;;;;17.30;10.20;;;;;;;7.76;87.43;102135.80;107622;1250;93812;-58
2023/02/13 07:36:32;;;;;;;18.80;11.20;;;;;;;7.75;86.68;102141.03;107632;1250;80768;-58
2023/02/13 07:39:17;;;;;;;16.80;10.20;;;;;;;7.66;86.45;102145.20;107680;1249;82483;-57
2023/02/13 07:42:04;;;;;;;17.80;10.80;;;;;;;7.59;86.04;102148.77;107674;1250;97869;-62
2023/02/13 07:44:50;;;;;;;15.60;9.90;;;;;;;7.33;85.88;102147.05;107672;1250;87015;-59
2023/02/13 07:47:32;;;;;;;15.90;9.70;;;;;;;7.11;85.62;102154.23;107640;1251;97042;-57
2023/02/13 07:50:12;;;;;;;20.00;13.50;;;;;;;6.94;85.40;102154.44;107634;1251;80283;-58
2023/02/13 07:52:55;;;;;;;16.70;10.60;;;;;;;6.75;85.54;102149.51;107636;1250;82839;-56
2023/02/13 07:55:35;;;;;;;17.30;9.90;;;;;;;6.55;85.42;102144.61;107627;1250;98451;-61
2023/02/13 07:58:15;;;;;;;14.10;9.20;;;;;;;6.47;85.46;102142.39;107661;1250;88634;-59
2023/02/13 08:00:50;;;;;;;15.50;8.80;;;;;;;6.42;85.69;102139.74;107620;1250;94341;-53
2023/02/13 08:03:23;;;;;;;;;;;;;;;6.40;85.89;102134.71;107672;1250;82343;-62
2023/02/13 08:06:06;;;;;;;20.10;10.80;;;;;;;6.31;86.09;102133.46;107648;1250;83416;-60
2023/02/13 08:11:52;;;;;;;16.50;9.00;;;;;;;6.36;86.10;102137.23;107635;1250;98222;-55
2023/02/13 08:11:57;;;;;;;12.80;7.60;;;;;;;6.47;86.15;102139.02;107640;1250;88594;-59
2023/02/13 08:14:41;;;;;;;11.90;7.80;;;;;;;6.48;86.20;102139.65;107597;1250;92503;-59
2023/02/13 08:17:16;;;;;;;12.60;8.00;;;;;;;6.58;86.28;102132.80;107627;1250;79397;-59
2023/02/13 08:19:55;;;;;;;15.30;8.50;;;;;;;6.65;86.18;102128.45;107689;1250;82984;-62
2023/02/13 08:22:41;;;;;;;14.30;8.80;;;;;;;6.74;86.32;102127.70;107621;1249;99072;-63
2023/02/13 08:25:18;;;;;;;16.20;8.70;;;;;;;6.81;86.10;102117.85;107641;1250;87680;-57
2023/02/13 08:27:55;;;;;;;12.80;8.20;;;;;;;6.77;86.13;102117.98;107640;1250;93245;-57
2023/02/13 08:30:36;;;;;;;15.40;9.40;;;;;;;6.78;86.15;102118.26;107629;1251;82378;-63
2023/02/13 08:33:13;;;;;;;11.40;7.30;;;;;;;6.94;86.10;102116.75;107651;1252;82925;-62
2023/02/13 08:35:53;;;;;;;12.90;8.80;;;;;;;7.14;86.20;102118.35;107618;1250;99120;-55
2023/02/13 08:38:38;;;;;;;12.40;8.70;;;;;;;7.26;85.77;102121.65;107656;1250;87677;-61
2023/02/13 08:41:17;;;;;;;11.80;6.80;;;;;;;7.44;85.93;102119.28;107627;1250;95365;-62
2023/02/13 08:44:03;;;;;;;11.00;6.40;;;;;;;7.62;85.57;102118.04;107659;1250;80922;-59
2023/02/13 08:46:42;;;;;;;11.20;7.00;;;;;;;7.64;85.47;102116.86;107662;1250;82895;-58
2023/02/13 08:49:25;;;;;;;20.80;10.10;;;;;;;7.60;85.17;102117.52;107681;1250;99281;-57
2023/02/13 08:52:05;;;;;;;12.50;6.70;;;;;;;7.46;84.81;102118.52;107654;1250;88406;-57
2023/02/13 08:54:48;;;;;;;9.40;5.90;;;;;;;7.26;84.60;102116.47;107655;1250;93865;-56
2023/02/13 08:57:25;;;;;;;11.40;6.60;;;;;;;7.07;84.53;102113.33;107624;1250;80082;-58
2023/02/13 09:00:03;;;;;;;10.60;6.50;;;;;;;6.96;84.55;102110.84;107702;1251;82513;-58
2023/02/13 09:02:42;;;;;;;10.10;5.90;;;;;;;6.88;84.49;102109.94;107658;1250;98986;-56
2023/02/13 09:05:27;;;;;;;8.10;5.30;;;;;;;6.82;84.40;102110.61;107638;1250;87592;-62
2023/02/13 09:08:12;;;;;;;10.80;6.80;;;;;;;6.66;84.37;102113.86;107585;1250;93633;-62
2023/02/13 09:10:58;;;;;;;8.90;5.90;;;;;;;6.55;84.50;102111.35;107652;1250;81607;-59
2023/02/13 09:13:37;;;;;;;9.50;5.70;;;;;;;6.56;84.53;102108.08;107643;1250;82302;-60
2023/02/13 09:16:12;;;;;;;9.30;6.20;;;;;;;6.58;84.55;102107.76;107625;1253;98848;-61
2023/02/13 09:18:51;;;;;;;10.40;7.80;;;;;;;6.57;84.81;102105.69;107727;1250;88383;-59
2023/02/13 09:21:32;;;;;;;10.20;6.20;;;;;;;6.51;84.83;102107.86;107675;1250;94937;-59
2023/02/13 09:24:09;;;;;;;14.50;7.40;;;;;;;6.47;84.78;102111.46;107632;1250;81634;-58
2023/02/13 09:26:51;;;;;;;11.50;6.40;;;;;;;6.44;84.84;102111.30;107695;1250;81201;-60
2023/02/13 09:29:30;;;;;;;12.00;6.20;;;;;;;6.46;84.64;102117.93;107723;1250;97846;-62
2023/02/13 09:32:14;;;;;;;11.30;5.90;;;;;;;6.53;84.79;102122.41;107639;1250;86645;-56
2023/02/13 09:34:59;;;;;;;10.10;6.00;;;;;;;6.62;84.89;102125.14;107691;1250;95374;-62
2023/02/13 09:37:39;;;;;;;6.70;5.30;;;;;;;6.72;85.05;102122.52;107619;1250;81786;-62
2023/02/13 09:40:29;;;;;;;11.20;7.60;;;;;;;6.84;85.11;102119.73;107651;1250;82449;-62
2023/02/13 09:43:17;;;;;;;9.80;6.30;;;;;;;6.87;85.19;102118.76;107622;1251;96202;-61
2023/02/13 09:45:56;;;;;;;9.30;6.80;;;;;;;6.99;85.27;102115.44;107627;1250;87710;-57
2023/02/13 09:48:37;;;;;;;8.50;6.00;;;;;;;7.02;85.27;102116.65;107687;1250;94149;-58
2023/02/13 09:51:22;;;;;;;7.80;5.60;;;;;;;7.05;85.24;102111.55;107682;1251;80533;-58
2023/02/13 09:54:07;;;;;;;9.30;6.00;;;;;;;7.10;85.36;102108.46;107689;1250;82025;-58
2023/02/13 09:57:06;;;;;;;8.40;5.90;;;;;;;7.11;85.19;102107.52;107636;1250;98535;-56
2023/02/13 09:59:57;;;;;;;11.30;7.20;;;;;;;7.08;85.20;102107.22;107655;1249;88328;-58
2023/02/13 10:03:18;;;;;;;10.50;7.40;;;;;;;7.21;85.26;102101.33;107597;1250;94220;-58
2023/02/13 10:06:13;;;;;;;10.90;7.70;;;;;;;7.33;85.48;102106.89;107620;1250;82174;-58
2023/02/13 10:09:06;;;;;;;10.80;7.10;;;;;;;7.51;85.36;102111.33;107654;1250;82562;-59
2023/02/13 10:12:22;;;;;;;14.90;8.30;;;;;;;7.66;85.47;102114.52;107646;1250;96387;-58
2023/02/13 10:15:18;;;;;;;11.10;7.50;;;;;;;7.70;85.38;102118.86;107498;1250;88455;-59
2023/02/13 10:18:05;;;;;;;16.50;9.30;;;;;;;7.73;85.14;102117.34;107624;1250;94476;-59
2023/02/13 10:20:47;;;;;;;17.80;9.00;;;;;;;7.73;84.91;102119.84;107665;1250;80269;-62
2023/02/13 10:23:31;;;;;;;13.70;9.10;;;;;;;7.59;84.67;102124.45;107630;1250;82465;-59
2023/02/13 10:26:21;;;;;;;14.30;7.40;;;;;;;7.32;84.77;102125.96;107629;1250;96947;-60
2023/02/13 10:32:13;;;;;;;11.30;7.50;;;;;;;7.08;84.82;102129.94;107604;1252;93187;-61
2023/02/13 10:34:56;;;;;;;10.30;6.70;;;;;;;7.10;84.95;102124.95;107656;1250;82209;-61
2023/02/13 10:37:39;;;;;;;10.10;7.20;;;;;;;7.11;84.99;102117.31;107640;1250;81337;-60
2023/02/13 10:40:16;;;;;;;9.10;6.50;;;;;;;7.20;85.10;102110.48;107657;1250;98309;-58
2023/02/13 10:43:07;;;;;;;11.20;8.30;;;;;;;7.28;84.90;102100.31;107677;1250;88396;-57
2023/02/13 10:45:57;;;;;;;10.90;7.70;;;;;;;7.29;85.17;102103.15;107636;1249;93871;-59
2023/02/13 10:49:05;;;;;;;10.30;7.10;;;;;;;7.41;85.28;102094.20;107705;1250;80789;-54
2023/02/13 10:51:51;;;;;;;10.80;7.40;;;;;;;7.58;85.21;102082.19;107637;1250;81994;-61
2023/02/13 10:54:52;;;;;;;11.20;7.70;;;;;;;7.75;85.44;102074.67;107599;1250;99275;-56
2023/02/13 10:57:48;;;;;;;9.60;7.10;;;;;;;7.91;85.23;102071.85;107667;1251;88692;-57
2023/02/13 11:00:38;;;;;;;12.40;6.90;;;;;;;7.95;85.08;102083.86;107622;1250;95222;-58
2023/02/13 11:03:25;;;;;;;10.50;7.30;;;;;;;7.99;85.08;102087.30;107664;1250;82015;-60
2023/02/13 11:06:15;;;;;;;14.20;8.60;;;;;;;7.97;85.07;102087.86;107691;1251;81585;-59
2023/02/13 11:08:52;;;;;;;22.50;12.20;;;;;;;7.93;84.90;102090.13;107702;1251;98561;-56
2023/02/13 11:11:38;;;;;;;28.30;17.70;;;;;;;7.86;84.87;102084.52;107699;1251;88689;-57
2023/02/13 11:14:19;;;;;;;18.10;11.30;;;;;;;7.81;84.82;102077.55;107705;1251;94319;-59
2023/02/13 11:17:06;;;;;;;18.00;11.00;;;;;;;7.80;84.66;102073.52;107707;1250;79306;-58
2023/02/13 11:19:51;;;;;;;12.40;8.30;;;;;;;7.73;84.65;102066.54;107744;1250;81217;-63
2023/02/13 11:22:37;;;;;;;10.20;6.60;;;;;;;7.72;84.83;102057.70;107660;1251;97621;-52
2023/02/13 11:25:28;;;;;;;9.40;6.30;;;;;;;7.75;84.67;102055.71;107693;1251;89860;-59
2023/02/13 11:28:20;;;;;;;9.90;6.90;;;;;;;7.72;84.51;102058.08;107667;1251;94273;-59
2023/02/13 11:31:15;;;;;;;9.70;6.60;;;;;;;7.63;84.68;102049.85;107716;1251;79601;-59
2023/02/13 11:33:56;;;;;;;12.20;7.70;;;;;;;7.61;84.55;102056.29;107725;1251;83533;-62
2023/02/13 11:36:34;;;;;;;14.30;10.70;;;;;;;7.53;84.66;102059.84;107672;1250;98117;-62
2023/02/13 11:39:23;;;;;;;14.10;10.40;;;;;;;7.53;84.55;102058.96;107694;1251;88683;-60
2023/02/13 11:41:58;;;;;;;11.50;8.40;;;;;;;7.50;84.41;102055.66;107684;1251;95867;-61
2023/02/13 11:44:38;;;;;;;11.90;7.30;;;;;;;7.41;84.49;102051.08;107658;1251;82217;-61
2023/02/13 11:47:33;;;;;;;10.00;7.60;;;;;;;7.33;84.49;102056.55;107704;1253;83005;-61
2023/02/13 11:50:22;;;;;;;;;;;;;;;7.29;84.58;102059.92;107708;1251;98415;-61
2023/02/13 11:53:06;;;;;;;10.90;8.60;;;;;;;7.31;84.52;102048.14;107707;1251;88734;-61
2023/02/13 11:56:01;;;;;;;11.40;8.20;;;;;;;7.24;84.78;102055.73;107698;1251;94420;-63
2023/02/13 11:58:49;;;;;;;12.80;8.90;;;;;;;7.24;84.64;102051.63;107672;1251;80816;-61
2023/02/13 12:01:31;;;;;;;10.40;7.80;;;;;;;7.16;84.73;102053.67;107681;1253;81719;-62
2023/02/13 12:04:21;;;;;;;13.00;7.70;;;;;;;7.13;84.72;102044.44;107701;1253;97624;-58
2023/02/13 12:07:16;;;;;;;12.30;8.20;;;;;;;7.18;84.71;102042.41;107686;1251;87804;-59
2023/02/13 12:09:55;;;;;;;11.50;7.60;;;;;;;7.31;84.73;102031.15;107671;1251;94915;-61
2023/02/13 12:12:42;;;;;;;12.70;7.90;;;;;;;7.51;84.89;102021.10;107677;1251;81589;-62
2023/02/13 12:15:30;;;;;;;14.30;8.80;;;;;;;7.77;84.73;102008.52;107688;1251;81880;-60
2023/02/13 12:18:20;;;;;;;11.80;8.20;;;;;;;7.95;84.70;102007.48;107707;1251;99162;-49
2023/02/13 12:21:10;;;;;;;12.30;7.80;;;;;;;8.02;84.58;102007.45;107689;1251;87673;-61
2023/02/13 12:23:58;;;;;;;9.70;7.10;;;;;;;8.10;84.35;102006.34;107723;1251;95126;-55
2023/02/13 12:26:41;;;;;;;10.40;7.50;;;;;;;8.05;84.07;102011.03;107734;1251;79019;-53
2023/02/13 12:29:45;;;;;;;12.50;7.10;;;;;;;8.03;84.02;102003.54;107680;1250;80115;-62
2023/02/13 12:32:29;;;;;;;9.20;7.30;;;;;;;8.00;84.09;102001.29;107678;1251;98633;-56
2023/02/13 12:38:28;;;;;;;11.40;7.30;;;;;;;7.88;83.34;102011.89;103877;1299;600465;-60
2023/02/13 12:41:20;;;;;;;12.70;7.30;;;;;;;7.67;83.38;102008.64;106664;1267;81170;-62
2023/02/13 12:44:28;;;;;;;10.60;7.30;;;;;;;7.54;83.50;102002.75;106698;1266;83683;-61
2023/02/13 12:47:20;;;;;;;11.20;7.10;;;;;;;7.42;83.59;101999.33;106676;1265;97921;-59
2023/02/13 12:50:38;;;;;;;11.80;7.60;;;;;;;7.42;83.50;101999.33;106680;1265;87729;-58
2023/02/13 12:53:28;;;;;;;13.60;7.90;;;;;;;7.44;83.70;101995.27;106369;1262;94003;-59
2023/02/13 12:56:39;;;;;;;14.00;9.20;;;;;;;7.55;83.47;101988.91;106782;1262;81394;-59
2023/02/13 12:59:30;;;;;;;11.40;8.10;;;;;;;7.55;83.43;101982.91;106821;1262;80934;-60
2023/02/13 13:02:50;;;;;;;12.10;7.40;;;;;;;7.66;83.46;101977.84;106761;1262;96600;-60
2023/02/13 13:05:43;;;;;;;8.00;6.00;;;;;;;7.83;83.61;101974.96;106803;1263;87405;-62
2023/02/13 13:08:56;;;;;;;9.20;5.80;;;;;;;7.98;83.37;101959.27;106770;1266;95342;-52
2023/02/13 13:12:07;;;;;;;10.50;5.70;;;;;;;8.13;83.27;101955.45;106772;1262;82258;-59
2023/02/13 13:14:53;;;;;;;8.80;5.90;;;;;;;8.25;83.31;101959.75;106771;1262;81671;-59
2023/02/13 13:17:46;;;;;;;10.40;5.50;;;;;;;8.30;83.14;101955.77;106972;1259;98750;-58
2023/02/13 13:21:03;;;;;;;8.80;6.20;;;;;;;8.24;82.98;101951.59;107064;1259;86011;-62